createdAt,value
2022-11-19T00:11:27.000Z,5.10
2022-11-19T00:21:27.000Z,5.20
2022-11-19T00:31:27.000Z,4.10
2022-11-19T00:41:26.000Z,4.50
2022-11-19T00:51:26.000Z,3.80
2022-11-19T01:01:26.000Z,4.50
2022-11-19T01:11:26.000Z,6.20
2022-11-19T01:21:26.000Z,3.80
2022-11-19T01:41:26.000Z,5.10
2022-11-19T01:51:25.000Z,3.60
2022-11-19T02:01:25.000Z,4.20
2022-11-19T02:11:25.000Z,4.00
2022-11-19T02:21:25.000Z,4.40
2022-11-19T02:31:25.000Z,3.90
2022-11-19T02:41:25.000Z,4.00
2022-11-19T02:51:25.000Z,6.40
2022-11-19T03:11:24.000Z,5.50
2022-11-19T03:21:24.000Z,4.50
2022-11-19T03:31:24.000Z,4.90
2022-11-19T03:41:24.000Z,4.20
2022-11-19T03:51:24.000Z,3.80
2022-11-19T04:01:24.000Z,4.60
2022-11-19T04:11:24.000Z,4.30
2022-11-19T04:21:24.000Z,4.90
2022-11-19T04:41:23.000Z,4.50
2022-11-19T04:51:23.000Z,5.60
2022-11-19T05:01:23.000Z,5.30
2022-11-19T05:11:23.000Z,5.00
2022-11-19T05:21:23.000Z,5.20
2022-11-19T05:31:23.000Z,5.90
2022-11-19T05:41:23.000Z,5.00
2022-11-19T05:51:22.000Z,4.50
2022-11-19T06:11:22.000Z,5.40
2022-11-19T06:21:22.000Z,5.90
2022-11-19T06:31:22.000Z,5.60
2022-11-19T06:41:22.000Z,7.20
2022-11-19T06:51:22.000Z,6.40
2022-11-19T07:01:22.000Z,6.60
2022-11-19T07:11:21.000Z,5.50
2022-11-19T07:21:21.000Z,5.70
2022-11-19T07:41:21.000Z,4.10
2022-11-19T07:51:21.000Z,4.70
2022-11-19T08:01:21.000Z,6.30
2022-11-19T08:11:21.000Z,5.20
2022-11-19T08:21:21.000Z,5.20
2022-11-19T08:31:20.000Z,5.00
2022-11-19T08:41:20.000Z,3.40
2022-11-19T08:51:20.000Z,4.40
2022-11-19T09:11:20.000Z,4.10
2022-11-19T09:21:20.000Z,3.90
2022-11-19T09:31:20.000Z,4.60
2022-11-19T09:41:20.000Z,5.00
2022-11-19T09:51:19.000Z,5.50
2022-11-19T10:01:19.000Z,3.90
2022-11-19T10:11:19.000Z,5.00
2022-11-19T10:21:19.000Z,3.90
2022-11-19T10:41:19.000Z,5.00
2022-11-19T10:51:19.000Z,4.50
2022-11-19T11:01:19.000Z,4.10
2022-11-19T11:11:18.000Z,4.20
2022-11-19T11:21:18.000Z,3.10
2022-11-19T11:31:18.000Z,3.30
2022-11-19T11:31:18.000Z,3.30
2022-11-19T11:41:18.000Z,3.60
2022-11-19T11:51:18.000Z,4.30
2022-11-19T12:11:18.000Z,2.70
2022-11-19T12:21:17.000Z,2.10
2022-11-19T12:31:17.000Z,2.60
2022-11-19T12:41:17.000Z,2.20
2022-11-19T12:51:17.000Z,2.10
2022-11-19T13:01:17.000Z,2.30
2022-11-19T13:11:17.000Z,2.20
2022-11-19T13:21:17.000Z,2.60
2022-11-19T13:41:16.000Z,2.20
2022-11-19T13:51:16.000Z,1.60
2022-11-19T14:01:16.000Z,2.20
2022-11-19T14:11:16.000Z,2.70
2022-11-19T14:21:16.000Z,2.30
2022-11-19T14:31:16.000Z,2.40
2022-11-19T14:41:16.000Z,2.50
2022-11-19T14:51:16.000Z,2.50
2022-11-19T15:11:15.000Z,3.00
2022-11-19T15:21:15.000Z,3.80
2022-11-19T15:31:15.000Z,4.30
2022-11-19T15:41:15.000Z,6.70
2022-11-19T15:51:15.000Z,4.00
2022-11-19T16:16:32.000Z,3.30
2022-11-19T16:16:32.000Z,4.70
2022-11-19T16:26:32.000Z,3.90
2022-11-19T16:36:32.000Z,4.10
2022-11-19T16:46:32.000Z,3.50
2022-11-19T16:56:32.000Z,3.40
2022-11-19T17:06:31.000Z,3.50
2022-11-19T17:36:48.000Z,3.20
2022-11-19T17:36:48.000Z,4.70
2022-11-19T17:46:48.000Z,5.00
2022-11-19T17:56:48.000Z,4.20
2022-11-19T18:06:48.000Z,3.60
2022-11-19T18:16:47.000Z,4.20
2022-11-19T18:26:47.000Z,4.60
2022-11-19T18:36:47.000Z,4.50
2022-11-19T18:46:47.000Z,6.10
2022-11-19T19:06:47.000Z,5.70
2022-11-19T19:16:47.000Z,5.70
2022-11-19T19:26:46.000Z,5.60
2022-11-19T19:36:46.000Z,5.40
2022-11-19T20:07:04.000Z,6.70
2022-11-19T20:07:04.000Z,5.80
2022-11-19T20:32:21.000Z,5.40
2022-11-19T20:32:21.000Z,6.10
2022-11-19T20:42:21.000Z,6.90
2022-11-19T20:52:21.000Z,7.10
2022-11-19T21:27:56.000Z,6.30
2022-11-19T21:27:56.000Z,6.00
2022-11-19T21:53:13.000Z,5.50
2022-11-19T22:08:30.000Z,5.20
2022-11-19T22:08:30.000Z,6.10
2022-11-19T22:18:30.000Z,7.10
2022-11-19T22:28:30.000Z,5.80
2022-11-19T22:38:30.000Z,6.00
2022-11-19T22:48:29.000Z,5.50
2022-11-19T22:58:29.000Z,6.50
2022-11-19T23:08:29.000Z,7.30
2022-11-19T23:18:29.000Z,6.30
2022-11-19T23:38:29.000Z,4.90
2022-11-19T23:48:29.000Z,10.20
2022-11-19T23:58:29.000Z,5.80
